Time;durP1;ratioP1;P1;durP2;ratioP2;P2;SDS_P1;SDS_P2;PMS_P1;PMS_P2;Temp;Humidity;BMP_temperature;BMP_pressure;BME280_temperature;BME280_humidity;BME280_pressure;Samples;Min_cycle;Max_cycle;Signal;HPM_P1;HPM_P2
2023/01/18 00:00:09;;;;;;;20.90;7.75;;;1.00;99.90;;;;;;5075210;28;20641;-45
2023/01/18 00:02:35;;;;;;;12.98;7.40;;;1.00;99.90;;;;;;5075309;28;20567;-45
2023/01/18 00:05:01;;;;;;;14.30;6.93;;;1.00;99.90;;;;;;5074967;28;20214;-45
2023/01/18 00:07:27;;;;;;;15.55;7.15;;;1.00;99.90;;;;;;5075399;28;20512;-45
2023/01/18 00:09:52;;;;;;;10.82;6.82;;;1.00;99.90;;;;;;5075007;28;20626;-46
2023/01/18 00:12:18;;;;;;;14.48;6.63;;;1.00;99.90;;;;;;5075306;28;20764;-45
2023/01/18 00:14:44;;;;;;;10.57;6.78;;;0.90;99.90;;;;;;5075274;28;20220;-45
2023/01/18 00:17:09;;;;;;;12.65;6.43;;;0.80;99.90;;;;;;5074480;28;20249;-45
2023/01/18 00:19:35;;;;;;;17.15;7.00;;;0.80;99.90;;;;;;5074886;28;20252;-45
2023/01/18 00:22:00;;;;;;;15.88;7.38;;;0.80;99.90;;;;;;5074796;28;20166;-45
2023/01/18 00:24:26;;;;;;;12.75;7.00;;;0.80;99.90;;;;;;5074810;28;20596;-45
2023/01/18 00:26:52;;;;;;;17.20;7.25;;;0.90;99.90;;;;;;5074928;28;20170;-45
2023/01/18 00:29:18;;;;;;;17.75;8.05;;;0.90;99.90;;;;;;5075022;28;20180;-45
2023/01/18 00:31:44;;;;;;;15.45;8.40;;;0.90;99.90;;;;;;5075067;28;20170;-45
2023/01/18 00:34:10;;;;;;;17.92;8.88;;;0.70;99.90;;;;;;5074820;28;20643;-45
2023/01/18 00:36:35;;;;;;;14.10;8.60;;;0.80;99.90;;;;;;5074554;28;20182;-45
2023/01/18 00:39:01;;;;;;;16.95;9.00;;;0.80;99.90;;;;;;5074749;28;20166;-45
2023/01/18 00:41:27;;;;;;;21.35;9.38;;;0.70;99.90;;;;;;5074706;28;20614;-45
2023/01/18 00:43:53;;;;;;;11.88;7.28;;;0.60;99.90;;;;;;5074653;28;20249;-45
2023/01/18 00:46:29;;;;;;;11.20;7.05;;;0.60;99.90;;;;;;5074629;28;20213;-45
2023/01/18 00:48:56;;;;;;;15.02;8.18;;;0.70;99.90;;;;;;5074636;28;20265;-45
2023/01/18 00:51:23;;;;;;;17.73;7.25;;;0.70;99.90;;;;;;5074515;28;20197;-45
2023/01/18 00:53:49;;;;;;;15.32;8.20;;;0.70;99.90;;;;;;5074243;28;20183;-45
2023/01/18 00:56:20;;;;;;;9.68;6.32;;;0.60;99.90;;;;;;5074583;28;20205;-45
2023/01/18 00:58:46;;;;;;;12.25;6.63;;;0.60;99.90;;;;;;5074616;28;20162;-45
2023/01/18 01:01:13;;;;;;;13.48;6.50;;;0.70;99.90;;;;;;5073874;28;20161;-45
2023/01/18 01:06:45;;;;;;;15.70;6.60;;;0.70;99.90;;;;;;5074295;28;20667;-45
2023/01/18 01:09:27;;;;;;;10.65;6.35;;;0.70;99.90;;;;;;5073704;28;20280;-45
2023/01/18 01:28:30;;;;;;;10.90;6.72;;;0.60;99.90;;;;;;5073876;28;20174;-45
2023/01/18 01:31:00;;;;;;;11.13;6.43;;;0.60;99.90;;;;;;5073270;28;20184;-45
2023/01/18 01:33:30;;;;;;;17.02;5.40;;;0.60;99.90;;;;;;5073552;28;20166;-45
2023/01/18 01:35:57;;;;;;;11.02;6.68;;;0.50;99.90;;;;;;5073369;28;20209;-45
2023/01/18 01:38:22;;;;;;;17.27;7.25;;;0.50;99.90;;;;;;5073867;28;20220;-45
2023/01/18 01:40:56;;;;;;;11.63;6.07;;;0.60;99.90;;;;;;5073764;28;20649;-45
2023/01/18 01:43:48;;;;;;;14.93;6.53;;;0.60;99.90;;;;;;5073572;28;20235;-45
2023/01/18 01:46:20;;;;;;;15.35;5.90;;;0.60;99.90;;;;;;5073723;28;20170;-45
2023/01/18 01:48:47;;;;;;;12.35;6.18;;;0.50;99.90;;;;;;5073551;28;20638;-45
2023/01/18 01:51:17;;;;;;;11.43;6.53;;;0.60;99.90;;;;;;5073265;28;20644;-45
2023/01/18 01:53:44;;;;;;;17.60;6.97;;;0.60;99.90;;;;;;5073173;28;20215;-45
2023/01/18 01:56:11;;;;;;;15.27;7.13;;;0.50;99.90;;;;;;5073007;28;20201;-45
2023/01/18 01:58:37;;;;;;;19.95;7.05;;;0.60;99.90;;;;;;5073015;28;20292;-45
2023/01/18 02:01:03;;;;;;;11.05;7.28;;;0.60;99.90;;;;;;5072943;28;20173;-45
2023/01/18 02:03:30;;;;;;;13.77;7.50;;;0.60;99.90;;;;;;5072696;28;20218;-48
2023/01/18 02:06:07;;;;;;;14.30;7.85;;;0.50;99.90;;;;;;5072868;28;20186;-45
2023/01/18 02:08:33;;;;;;;15.57;7.53;;;0.60;99.90;;;;;;5072825;28;20185;-45
2023/01/18 02:10:59;;;;;;;15.30;7.28;;;0.50;99.90;;;;;;5072688;28;20166;-46
2023/01/18 02:13:25;;;;;;;19.05;7.30;;;0.60;99.90;;;;;;5072738;28;20172;-45
2023/01/18 02:16:02;;;;;;;17.05;8.23;;;0.50;99.90;;;;;;5072818;28;20205;-45
2023/01/18 02:18:43;;;;;;;20.55;7.13;;;0.50;99.90;;;;;;5072715;28;20534;-45
2023/01/18 02:21:35;;;;;;;16.65;7.43;;;0.50;99.90;;;;;;5072551;28;20256;-45
2023/01/18 02:24:11;;;;;;;14.77;8.30;;;0.50;99.90;;;;;;5072535;28;20185;-45
2023/01/18 02:26:48;;;;;;;19.95;8.57;;;0.60;99.90;;;;;;5072465;28;20157;-45
2023/01/18 02:29:37;;;;;;;17.58;8.73;;;0.50;99.90;;;;;;5072537;28;20174;-45
2023/01/18 02:32:11;;;;;;;26.85;9.20;;;0.50;99.90;;;;;;5072434;28;20158;-45
2023/01/18 02:35:05;;;;;;;18.02;8.85;;;0.50;99.90;;;;;;5072258;28;20189;-45
2023/01/18 02:38:10;;;;;;;23.30;9.55;;;0.50;99.90;;;;;;5072142;28;20736;-45
2023/01/18 02:41:14;;;;;;;15.77;8.95;;;0.50;99.90;;;;;;5072157;28;20176;-45
2023/01/18 02:46:34;;;;;;;13.63;8.25;;;0.60;99.90;;;;;;5072343;28;20172;-45
2023/01/18 02:49:06;;;;;;;15.73;8.40;;;0.60;99.90;;;;;;5072043;28;20248;-45
2023/01/18 02:51:31;;;;;;;18.90;7.40;;;0.60;99.90;;;;;;5072162;28;20178;-45
2023/01/18 02:53:57;;;;;;;20.58;7.90;;;0.60;99.90;;;;;;5071999;28;20180;-45
2023/01/18 02:56:37;;;;;;;18.33;8.32;;;0.60;99.90;;;;;;5071848;28;20251;-45
2023/01/18 02:59:23;;;;;;;26.67;8.48;;;0.60;99.90;;;;;;5070673;28;20161;-45
2023/01/18 03:02:11;;;;;;;22.85;8.25;;;0.50;99.90;;;;;;5072279;28;20194;-45
2023/01/18 03:04:53;;;;;;;21.55;7.95;;;0.50;99.90;;;;;;5071769;28;20697;-45
2023/01/18 03:07:28;;;;;;;24.60;8.32;;;0.40;99.90;;;;;;5072418;28;20200;-45
2023/01/18 03:09:55;;;;;;;28.17;8.55;;;0.40;99.90;;;;;;5071758;28;20188;-45
2023/01/18 03:12:47;;;;;;;22.65;9.45;;;0.30;99.90;;;;;;5071721;28;20211;-45
2023/01/18 03:15:45;;;;;;;21.38;8.18;;;0.30;99.90;;;;;;5071731;28;20198;-45
2023/01/18 03:18:18;;;;;;;23.08;8.60;;;0.20;99.90;;;;;;5071923;28;20170;-45
2023/01/18 03:20:49;;;;;;;30.92;10.13;;;0.20;99.90;;;;;;5071727;28;20158;-45
2023/01/18 03:23:37;;;;;;;21.25;8.75;;;0.30;99.90;;;;;;5072046;28;20249;-45
2023/01/18 03:26:07;;;;;;;34.17;8.60;;;0.30;99.90;;;;;;5071685;28;20166;-45
2023/01/18 03:34:30;;;;;;;25.00;10.25;;;0.30;99.90;;;;;;5071469;28;20173;-45
2023/01/18 03:37:00;;;;;;;27.27;9.73;;;0.20;99.90;;;;;;5071561;28;20204;-45
2023/01/18 03:39:31;;;;;;;23.52;8.63;;;0.40;99.90;;;;;;5071368;28;20510;-45
2023/01/18 03:42:04;;;;;;;26.42;10.50;;;0.30;99.90;;;;;;5071452;28;20158;-45
2023/01/18 03:44:39;;;;;;;28.33;10.38;;;0.40;99.90;;;;;;5071396;28;20170;-45
2023/01/18 03:47:06;;;;;;;38.92;10.25;;;0.30;99.90;;;;;;5071663;28;20196;-45
2023/01/18 03:49:33;;;;;;;26.73;10.48;;;0.30;99.90;;;;;;5071451;28;20638;-45
2023/01/18 03:52:16;;;;;;;28.17;10.45;;;0.30;99.90;;;;;;5071403;28;20177;-45
2023/01/18 03:54:50;;;;;;;25.48;9.30;;;0.30;99.90;;;;;;5071239;28;20189;-45
2023/01/18 03:57:33;;;;;;;19.60;9.70;;;0.20;99.90;;;;;;5071698;28;20220;-45
2023/01/18 04:00:00;;;;;;;18.15;10.60;;;0.20;99.90;;;;;;5071261;28;20154;-45
2023/01/18 04:02:26;;;;;;;32.60;10.52;;;0.30;99.90;;;;;;5071325;28;20174;-45
2023/01/18 04:04:56;;;;;;;25.38;11.23;;;0.30;99.90;;;;;;5071079;28;20253;-45
2023/01/18 04:07:23;;;;;;;23.90;10.73;;;0.30;99.90;;;;;;5071447;28;20171;-45
2023/01/18 04:09:49;;;;;;;20.23;11.05;;;0.20;99.90;;;;;;5071383;28;20182;-45
2023/01/18 04:12:14;;;;;;;26.58;11.68;;;0.20;99.90;;;;;;5071423;28;20638;-45
2023/01/18 04:14:40;;;;;;;21.75;13.00;;;0.10;99.90;;;;;;5071012;28;20732;-45
2023/01/18 04:17:05;;;;;;;23.33;13.20;;;0.20;99.90;;;;;;5071092;28;20178;-45
2023/01/18 04:19:31;;;;;;;21.77;11.82;;;0.20;99.90;;;;;;5071100;28;20170;-45
2023/01/18 04:21:56;;;;;;;26.25;11.98;;;0.20;99.90;;;;;;5071092;28;20216;-45
2023/01/18 04:24:22;;;;;;;21.58;10.00;;;0.20;99.90;;;;;;5071050;28;20166;-45
2023/01/18 04:26:48;;;;;;;17.70;11.00;;;0.30;99.90;;;;;;5071378;28;20166;-45
2023/01/18 04:29:13;;;;;;;28.63;11.80;;;0.30;99.90;;;;;;5071399;28;20690;-45
2023/01/18 04:31:39;;;;;;;18.25;11.05;;;0.30;99.90;;;;;;5070936;28;20571;-45
2023/01/18 04:34:04;;;;;;;20.52;11.07;;;0.30;99.90;;;;;;5071008;28;20170;-45
2023/01/18 04:36:30;;;;;;;19.27;11.32;;;0.20;99.90;;;;;;5070869;28;20529;-45
2023/01/18 04:38:56;;;;;;;23.35;11.75;;;0.20;99.90;;;;;;5070911;28;20189;-45
2023/01/18 04:41:22;;;;;;;19.20;11.52;;;0.20;99.90;;;;;;5071186;28;20169;-45
2023/01/18 04:43:48;;;;;;;19.85;11.63;;;0.30;99.90;;;;;;5073873;28;20620;-45
2023/01/18 04:46:14;;;;;;;22.02;11.05;;;0.30;99.90;;;;;;5075045;28;20162;-45
2023/01/18 04:48:40;;;;;;;22.50;11.55;;;0.20;99.90;;;;;;5074559;28;20261;-45
2023/01/18 04:51:11;;;;;;;16.42;10.48;;;0.20;99.90;;;;;;5074318;28;20638;-45
2023/01/18 04:53:36;;;;;;;19.33;11.50;;;0.20;99.90;;;;;;5074260;28;20212;-45
2023/01/18 04:56:02;;;;;;;24.10;11.73;;;0.10;99.90;;;;;;5074369;28;20609;-45
2023/01/18 04:58:27;;;;;;;19.98;11.13;;;0.30;99.90;;;;;;5074195;28;20162;-45
2023/01/18 05:00:53;;;;;;;27.48;12.30;;;0.10;99.90;;;;;;5074132;28;20166;-45
2023/01/18 05:03:18;;;;;;;25.63;12.20;;;0.20;99.90;;;;;;5074057;28;20210;-45
2023/01/18 05:05:44;;;;;;;20.13;12.43;;;0.20;99.90;;;;;;5074403;28;20177;-45
2023/01/18 05:08:09;;;;;;;20.38;11.68;;;0.10;99.90;;;;;;5074138;28;20203;-45
2023/01/18 05:10:35;;;;;;;19.70;11.98;;;0.10;99.90;;;;;;5073969;28;20191;-45
2023/01/18 05:13:01;;;;;;;20.23;10.90;;;0.10;99.90;;;;;;5074115;28;20193;-45
2023/01/18 05:15:26;;;;;;;20.67;11.25;;;0.10;99.90;;;;;;5074239;28;20205;-45
2023/01/18 05:17:52;;;;;;;16.30;11.50;;;0.10;99.90;;;;;;5073839;28;20575;-45
2023/01/18 05:20:17;;;;;;;25.85;12.45;;;0.10;99.90;;;;;;5074347;28;20177;-45
2023/01/18 05:22:43;;;;;;;19.67;11.50;;;0.10;99.90;;;;;;5074079;28;20202;-45
2023/01/18 05:25:09;;;;;;;18.77;11.20;;;0.10;99.90;;;;;;5073710;28;20166;-45
2023/01/18 05:27:34;;;;;;;19.05;10.57;;;0.00;99.90;;;;;;5073682;28;20173;-45
2023/01/18 05:30:00;;;;;;;24.13;11.90;;;0.00;99.90;;;;;;5073594;28;20188;-45
2023/01/18 05:32:26;;;;;;;17.98;11.02;;;0.00;99.90;;;;;;5073894;28;20181;-45
2023/01/18 05:34:51;;;;;;;19.65;11.35;;;0.00;99.90;;;;;;5073716;28;20194;-45
2023/01/18 05:37:17;;;;;;;21.27;11.85;;;0.10;99.90;;;;;;5073813;28;20599;-45
2023/01/18 05:39:43;;;;;;;16.88;10.52;;;0.00;99.90;;;;;;5073853;28;20553;-45
2023/01/18 05:42:08;;;;;;;18.83;10.48;;;-0.10;99.90;;;;;;5073305;28;20166;-45
2023/01/18 05:44:34;;;;;;;23.25;11.70;;;0.00;99.90;;;;;;5073357;28;20162;-45
2023/01/18 05:46:59;;;;;;;17.20;10.07;;;-0.10;99.90;;;;;;5073159;28;20709;-45
2023/01/18 05:49:25;;;;;;;23.35;10.20;;;-0.10;99.90;;;;;;5073229;28;20249;-45
2023/01/18 05:51:51;;;;;;;19.85;10.63;;;-0.10;99.90;;;;;;5073154;28;20168;-45
2023/01/18 05:54:16;;;;;;;18.33;10.30;;;-0.20;99.90;;;;;;5072962;28;20603;-45
2023/01/18 05:56:42;;;;;;;17.33;10.18;;;-0.20;99.90;;;;;;5072937;28;20236;-45
2023/01/18 05:59:08;;;;;;;23.00;9.90;;;-0.20;99.90;;;;;;5073046;28;20170;-46
2023/01/18 06:01:33;;;;;;;21.00;9.95;;;-0.20;99.90;;;;;;5072877;28;20173;-46
2023/01/18 06:03:59;;;;;;;20.35;10.80;;;-0.20;99.90;;;;;;5072735;28;20222;-45
2023/01/18 06:06:25;;;;;;;15.40;9.88;;;-0.20;99.90;;;;;;5072864;28;20174;-45
2023/01/18 06:08:50;;;;;;;19.13;10.70;;;-0.20;99.90;;;;;;5072908;28;20177;-45
2023/01/18 06:11:16;;;;;;;22.27;11.20;;;-0.20;99.90;;;;;;5073110;28;20169;-45
2023/01/18 06:13:41;;;;;;;20.60;11.45;;;-0.30;99.90;;;;;;5072653;28;20613;-45
2023/01/18 06:16:07;;;;;;;21.23;10.48;;;-0.20;99.90;;;;;;5072587;28;20739;-45
2023/01/18 06:18:33;;;;;;;19.13;10.45;;;-0.20;99.90;;;;;;5072588;28;20170;-45
2023/01/18 06:21:00;;;;;;;26.60;10.68;;;-0.20;99.90;;;;;;5072721;28;20169;-45
2023/01/18 06:23:27;;;;;;;15.88;10.88;;;-0.20;99.90;;;;;;5072434;28;20154;-45
2023/01/18 06:25:52;;;;;;;23.92;10.80;;;-0.20;99.90;;;;;;5072481;28;20193;-45
2023/01/18 06:28:18;;;;;;;23.27;10.60;;;-0.20;99.90;;;;;;5072620;28;20223;-45
2023/01/18 06:30:46;;;;;;;17.25;10.63;;;-0.30;99.90;;;;;;5072747;28;20181;-45
2023/01/18 06:33:15;;;;;;;22.15;10.85;;;-0.20;99.90;;;;;;5072374;28;20163;-45
2023/01/18 06:35:42;;;;;;;13.32;9.18;;;-0.20;99.90;;;;;;5072264;28;20202;-46
2023/01/18 06:38:08;;;;;;;19.27;10.55;;;-0.10;99.90;;;;;;5072532;28;20166;-45
2023/01/18 06:40:34;;;;;;;22.80;11.65;;;-0.10;99.90;;;;;;5072506;28;20547;-45
2023/01/18 06:42:59;;;;;;;16.95;10.27;;;-0.10;99.90;;;;;;5072397;28;20249;-45
2023/01/18 06:45:25;;;;;;;24.92;11.55;;;-0.10;99.90;;;;;;5070431;28;20170;-45
2023/01/18 06:47:51;;;;;;;19.98;10.10;;;-0.10;99.90;;;;;;5070785;28;20181;-46
2023/01/18 06:50:17;;;;;;;19.48;10.55;;;0.00;99.90;;;;;;5071023;28;20208;-44
2023/01/18 06:52:43;;;;;;;21.17;11.00;;;0.00;99.90;;;;;;5070835;28;20583;-45
2023/01/18 06:55:13;;;;;;;18.83;10.27;;;0.10;99.90;;;;;;5070435;28;20570;-44
2023/01/18 06:57:39;;;;;;;22.77;11.13;;;0.10;99.90;;;;;;5070403;28;20180;-46
2023/01/18 07:00:06;;;;;;;20.15;10.25;;;0.10;99.90;;;;;;5070359;28;20166;-46
2023/01/18 07:02:32;;;;;;;22.25;10.52;;;0.00;99.90;;;;;;5070740;28;20170;-45
2023/01/18 07:04:58;;;;;;;23.92;10.40;;;0.00;99.90;;;;;;5069512;28;20228;-45
2023/01/18 07:07:24;;;;;;;18.58;10.55;;;0.00;99.90;;;;;;5070091;28;20166;-45
2023/01/18 07:09:49;;;;;;;18.35;10.75;;;0.00;99.90;;;;;;5070050;28;20605;-47
2023/01/18 07:12:15;;;;;;;21.20;9.90;;;0.00;99.90;;;;;;5070684;28;20177;-45
2023/01/18 07:14:40;;;;;;;23.35;10.73;;;0.00;99.90;;;;;;5070147;28;20272;-45
2023/01/18 07:17:07;;;;;;;17.70;10.88;;;0.00;99.90;;;;;;5070110;28;20178;-45
2023/01/18 07:19:33;;;;;;;25.08;10.90;;;0.00;99.90;;;;;;5070442;28;20203;-46
2023/01/18 07:21:59;;;;;;;21.08;10.95;;;0.00;99.90;;;;;;5070124;28;20170;-46
2023/01/18 07:24:25;;;;;;;22.75;11.55;;;0.00;99.90;;;;;;5070500;28;20538;-46
2023/01/18 07:26:50;;;;;;;21.30;11.20;;;0.00;99.90;;;;;;5070058;28;20340;-45
2023/01/18 07:29:16;;;;;;;19.85;10.30;;;0.10;99.90;;;;;;5070341;28;20247;-46
2023/01/18 07:31:41;;;;;;;21.15;11.13;;;0.10;99.90;;;;;;5070097;28;20174;-45
2023/01/18 07:34:08;;;;;;;21.92;10.95;;;0.10;99.90;;;;;;5070024;28;20170;-45
2023/01/18 07:36:34;;;;;;;17.85;9.90;;;0.10;99.90;;;;;;5070111;28;20217;-45
2023/01/18 07:39:01;;;;;;;20.27;10.88;;;0.10;99.90;;;;;;5069968;28;20700;-46
2023/01/18 07:41:27;;;;;;;22.27;10.80;;;0.10;99.90;;;;;;5070254;28;20200;-45
2023/01/18 07:43:54;;;;;;;17.15;10.63;;;0.20;99.90;;;;;;5069491;28;20775;-46
2023/01/18 07:46:20;;;;;;;22.58;12.25;;;0.10;99.90;;;;;;5070055;28;20249;-46
2023/01/18 07:48:47;;;;;;;20.65;10.85;;;0.20;99.90;;;;;;5070134;28;20696;-47
2023/01/18 07:51:13;;;;;;;20.17;10.40;;;0.20;99.90;;;;;;5070100;28;20265;-45
2023/01/18 07:53:39;;;;;;;23.17;10.65;;;0.20;99.90;;;;;;5069330;28;20223;-46
2023/01/18 07:56:08;;;;;;;18.83;10.95;;;0.20;99.90;;;;;;5069513;28;20213;-46
2023/01/18 07:58:35;;;;;;;17.13;10.05;;;0.20;99.90;;;;;;5069927;28;20170;-46
2023/01/18 08:01:05;;;;;;;15.05;9.45;;;0.20;99.90;;;;;;5069413;28;20645;-46
2023/01/18 08:03:31;;;;;;;20.35;11.27;;;0.30;99.90;;;;;;5069617;28;20232;-47
2023/01/18 08:05:58;;;;;;;19.08;10.88;;;0.30;99.90;;;;;;5069676;28;20173;-47
2023/01/18 08:08:26;;;;;;;17.88;10.48;;;0.40;99.90;;;;;;5069300;28;20155;-46
2023/01/18 08:10:54;;;;;;;20.42;10.65;;;0.30;99.90;;;;;;5069714;28;20167;-45
2023/01/18 08:13:20;;;;;;;17.85;10.70;;;0.40;99.90;;;;;;5069692;28;20180;-45
2023/01/18 08:15:46;;;;;;;18.02;10.20;;;0.50;99.90;;;;;;5070079;28;20213;-45
2023/01/18 08:18:13;;;;;;;20.60;9.88;;;0.40;99.90;;;;;;5072534;28;20185;-46
2023/01/18 08:20:41;;;;;;;19.63;9.23;;;0.40;99.90;;;;;;5073840;28;20182;-45
2023/01/18 08:23:07;;;;;;;16.00;9.93;;;0.50;99.90;;;;;;5072901;28;20166;-45
2023/01/18 08:25:32;;;;;;;14.93;9.80;;;0.60;99.90;;;;;;5073188;28;20177;-46
2023/01/18 08:28:00;;;;;;;18.40;9.77;;;0.60;99.90;;;;;;5073445;28;20205;-45
2023/01/18 08:30:29;;;;;;;16.88;10.45;;;0.60;99.90;;;;;;5072795;28;20169;-46
2023/01/18 08:32:56;;;;;;;21.27;10.63;;;0.70;99.90;;;;;;5073058;28;20162;-46
2023/01/18 08:35:22;;;;;;;23.05;9.85;;;0.70;99.90;;;;;;5073078;28;20205;-46
2023/01/18 08:37:48;;;;;;;15.73;10.15;;;0.70;99.90;;;;;;5073018;28;20170;-46
2023/01/18 08:40:13;;;;;;;22.40;10.05;;;0.70;99.90;;;;;;5073246;28;20173;-46
2023/01/18 08:42:39;;;;;;;19.50;9.93;;;0.80;99.90;;;;;;5073005;28;20184;-45
2023/01/18 08:45:05;;;;;;;16.15;9.30;;;0.80;99.90;;;;;;5072834;28;20177;-45
2023/01/18 08:47:31;;;;;;;19.83;9.90;;;0.90;99.90;;;;;;5073051;28;20530;-45
2023/01/18 08:49:56;;;;;;;14.77;8.45;;;0.90;99.90;;;;;;5072774;28;20173;-46
2023/01/18 08:52:22;;;;;;;27.45;10.15;;;1.00;99.90;;;;;;5072683;28;20196;-47
2023/01/18 08:54:47;;;;;;;19.73;10.05;;;1.00;99.90;;;;;;5072695;28;20572;-45
2023/01/18 08:57:13;;;;;;;16.90;11.07;;;1.10;99.90;;;;;;5073014;28;20173;-46
2023/01/18 08:59:38;;;;;;;17.08;9.48;;;1.20;99.90;;;;;;5072642;28;20173;-47
2023/01/18 09:02:04;;;;;;;15.80;9.70;;;1.30;99.90;;;;;;5072478;28;20211;-46
2023/01/18 09:04:30;;;;;;;19.23;9.60;;;1.20;99.90;;;;;;5072178;28;20293;-47
2023/01/18 09:06:55;;;;;;;16.33;8.75;;;1.30;99.90;;;;;;5072253;28;20249;-47
2023/01/18 09:09:21;;;;;;;21.13;11.35;;;1.30;99.90;;;;;;5071970;28;20895;-47
2023/01/18 09:11:50;;;;;;;20.35;10.88;;;1.40;99.90;;;;;;5072464;28;20220;-46
2023/01/18 09:14:16;;;;;;;15.98;9.70;;;1.40;99.90;;;;;;5072903;28;20658;-47
2023/01/18 09:16:41;;;;;;;19.08;10.93;;;1.40;99.90;;;;;;5072272;28;20285;-47
2023/01/18 09:19:07;;;;;;;20.92;11.30;;;1.50;99.90;;;;;;5072217;28;20170;-47
2023/01/18 09:21:33;;;;;;;22.42;11.15;;;1.60;99.90;;;;;;5072100;28;20173;-47
2023/01/18 09:23:58;;;;;;;18.02;10.35;;;1.70;99.90;;;;;;5072310;28;20614;-47
2023/01/18 09:26:25;;;;;;;16.80;9.90;;;1.70;99.90;;;;;;5072043;28;20622;-47
2023/01/18 09:28:52;;;;;;;17.75;10.45;;;1.90;99.90;;;;;;5071224;28;20630;-47
2023/01/18 09:31:19;;;;;;;22.15;11.32;;;1.80;99.90;;;;;;5072112;28;20170;-47
2023/01/18 09:33:45;;;;;;;18.70;10.55;;;1.90;99.90;;;;;;5072636;28;20170;-47
2023/01/18 09:36:12;;;;;;;19.90;10.02;;;1.90;99.90;;;;;;5071741;28;20279;-47
2023/01/18 09:38:40;;;;;;;15.27;9.25;;;1.90;99.90;;;;;;5071494;28;20532;-46
2023/01/18 09:41:18;;;;;;;15.77;10.57;;;2.00;99.90;;;;;;5071673;28;20578;-46
2023/01/18 09:43:48;;;;;;;22.40;9.55;;;2.00;99.90;;;;;;5072174;28;20154;-46
2023/01/18 09:46:18;;;;;;;17.23;9.35;;;2.10;99.90;;;;;;5072059;28;20173;-46
2023/01/18 09:48:47;;;;;;;22.27;10.80;;;2.00;99.90;;;;;;5072041;28;20170;-47
2023/01/18 09:51:37;;;;;;;23.90;12.50;;;2.00;99.90;;;;;;5071881;28;20264;-47
2023/01/18 09:54:20;;;;;;;25.40;13.65;;;2.10;99.90;;;;;;5071644;28;20174;-46
2023/01/18 09:56:52;;;;;;;20.83;10.43;;;2.10;99.90;;;;;;5071938;28;20201;-47
2023/01/18 09:59:33;;;;;;;18.58;8.82;;;1.90;99.90;;;;;;5071418;28;20170;-47
2023/01/18 10:02:37;;;;;;;19.33;9.90;;;1.70;99.90;;;;;;5071713;28;20586;-49
2023/01/18 10:05:06;;;;;;;18.35;10.02;;;1.70;99.90;;;;;;5062012;28;20244;-48
2023/01/18 10:07:37;;;;;;;20.67;10.23;;;1.60;99.90;;;;;;5072935;28;20166;-48
2023/01/18 10:10:04;;;;;;;20.63;10.43;;;1.60;99.90;;;;;;5072811;28;20176;-47
2023/01/18 10:12:29;;;;;;;23.13;10.02;;;1.50;99.90;;;;;;5073048;28;20224;-46
2023/01/18 10:15:10;;;;;;;30.27;13.15;;;1.50;99.90;;;;;;5072661;28;20194;-46
2023/01/18 10:17:40;;;;;;;18.60;10.48;;;1.60;99.90;;;;;;5072743;28;20645;-47
2023/01/18 10:20:30;;;;;;;16.98;9.98;;;1.60;99.90;;;;;;5072743;28;20279;-47
2023/01/18 10:23:08;;;;;;;20.35;10.40;;;1.60;99.90;;;;;;5072676;28;20170;-46
2023/01/18 10:25:59;;;;;;;23.65;10.95;;;1.60;99.90;;;;;;5072736;28;20184;-47
2023/01/18 10:28:39;;;;;;;18.85;10.13;;;1.60;99.90;;;;;;5071496;28;20567;-47
2023/01/18 10:31:43;;;;;;;18.65;10.60;;;1.60;99.90;;;;;;5072428;28;20189;-46
2023/01/18 10:34:20;;;;;;;19.55;11.10;;;1.60;99.90;;;;;;5072792;28;20169;-47
2023/01/18 10:36:52;;;;;;;18.60;9.88;;;1.50;99.90;;;;;;5072591;28;20201;-46
2023/01/18 10:39:34;;;;;;;28.30;14.02;;;1.60;99.90;;;;;;5071789;28;20637;-46
2023/01/18 10:42:15;;;;;;;21.98;10.60;;;1.60;99.90;;;;;;5072417;28;20178;-47
2023/01/18 10:44:40;;;;;;;15.93;9.60;;;1.60;99.90;;;;;;5072180;28;20162;-49
2023/01/18 10:47:06;;;;;;;20.10;9.82;;;1.50;99.90;;;;;;5072172;28;20181;-47
2023/01/18 10:49:36;;;;;;;26.23;11.50;;;1.50;99.90;;;;;;5072414;28;20165;-49
2023/01/18 10:52:24;;;;;;;21.48;10.95;;;1.60;99.90;;;;;;5072070;28;20649;-48
2023/01/18 10:54:52;;;;;;;19.55;9.68;;;1.50;99.90;;;;;;5071973;28;20174;-48
2023/01/18 10:57:25;;;;;;;17.02;9.45;;;1.50;99.90;;;;;;5070995;28;20182;-49
2023/01/18 10:59:52;;;;;;;21.38;10.95;;;1.60;99.90;;;;;;5071783;28;20169;-46
2023/01/18 11:02:26;;;;;;;26.23;10.63;;;1.70;99.90;;;;;;5072038;28;20277;-46
2023/01/18 11:05:21;;;;;;;16.25;9.77;;;1.60;99.90;;;;;;5071506;28;20232;-47
2023/01/18 11:07:47;;;;;;;19.30;9.43;;;1.60;99.90;;;;;;5071716;28;20652;-46
2023/01/18 11:10:26;;;;;;;19.50;10.60;;;1.60;99.90;;;;;;5071862;28;20174;-46
2023/01/18 11:12:53;;;;;;;22.42;10.52;;;1.60;99.90;;;;;;5071816;28;20166;-46
2023/01/18 11:15:18;;;;;;;23.40;11.23;;;1.60;99.90;;;;;;5071600;28;20665;-46
2023/01/18 11:17:56;;;;;;;18.58;10.45;;;1.70;99.90;;;;;;5071985;28;20181;-46
2023/01/18 11:20:48;;;;;;;16.40;9.85;;;1.70;99.90;;;;;;5071676;28;20310;-46
2023/01/18 11:23:16;;;;;;;14.40;9.60;;;1.70;99.90;;;;;;5072275;28;20166;-46
2023/01/18 11:25:54;;;;;;;16.20;9.15;;;1.80;99.90;;;;;;5072005;28;20630;-46
2023/01/18 11:28:45;;;;;;;15.00;8.70;;;1.80;99.90;;;;;;5071796;28;20180;-46
2023/01/18 11:31:17;;;;;;;14.95;8.05;;;1.80;99.90;;;;;;5071528;28;20170;-46
2023/01/18 11:34:03;;;;;;;18.70;8.20;;;1.80;99.90;;;;;;5072186;28;20174;-46
2023/01/18 11:36:41;;;;;;;16.48;8.85;;;1.80;99.90;;;;;;5071478;28;20297;-46
2023/01/18 11:39:24;;;;;;;16.33;8.50;;;1.90;99.90;;;;;;5071464;28;20166;-46
2023/01/18 11:41:50;;;;;;;20.27;8.63;;;1.90;99.90;;;;;;5071556;28;20592;-46
2023/01/18 11:44:23;;;;;;;11.02;8.35;;;1.90;99.90;;;;;;5071932;28;20622;-46
2023/01/18 11:46:59;;;;;;;15.05;8.57;;;2.00;99.90;;;;;;5071478;28;20198;-46
2023/01/18 11:49:41;;;;;;;13.35;8.02;;;2.10;99.90;;;;;;5071685;28;20188;-46
2023/01/18 11:52:27;;;;;;;17.15;9.07;;;2.10;99.90;;;;;;5073181;28;20170;-46
2023/01/18 11:55:01;;;;;;;11.35;7.22;;;2.10;99.90;;;;;;5075693;28;20253;-46
2023/01/18 11:57:27;;;;;;;14.10;8.35;;;2.10;99.90;;;;;;5075351;28;20205;-46
2023/01/18 11:59:53;;;;;;;13.68;7.85;;;2.10;99.90;;;;;;5075591;28;20189;-46
2023/01/18 12:02:33;;;;;;;14.43;6.70;;;2.20;99.90;;;;;;5075330;28;20177;-46
2023/01/18 12:05:11;;;;;;;14.23;7.88;;;2.20;99.90;;;;;;5075127;28;20248;-46
2023/01/18 12:07:52;;;;;;;13.38;8.25;;;2.20;99.90;;;;;;5075090;28;20178;-46
2023/01/18 12:10:23;;;;;;;13.32;6.97;;;2.20;99.90;;;;;;5075363;28;20177;-46
2023/01/18 12:13:26;;;;;;;14.88;6.55;;;2.20;99.90;;;;;;5074664;28;20170;-47
2023/01/18 12:16:16;;;;;;;12.00;7.03;;;2.40;99.90;;;;;;5074566;28;20205;-46
2023/01/18 12:18:56;;;;;;;11.90;7.13;;;2.40;99.90;;;;;;5075459;28;20158;-46
2023/01/18 12:21:52;;;;;;;12.95;7.85;;;2.60;99.90;;;;;;5075029;28;20177;-46
2023/01/18 12:24:59;;;;;;;10.73;7.45;;;2.80;99.90;;;;;;5074855;28;20646;-46
2023/01/18 12:28:01;;;;;;;13.10;6.43;;;2.80;99.90;;;;;;5074839;28;20162;-46
2023/01/18 12:30:42;;;;;;;13.05;6.80;;;3.00;99.90;;;;;;5074830;28;20176;-46
2023/01/18 12:33:28;;;;;;;10.55;6.60;;;3.10;99.90;;;;;;5074691;28;20534;-46
2023/01/18 12:36:10;;;;;;;10.90;6.80;;;3.20;99.90;;;;;;5074573;28;20527;-46
2023/01/18 12:38:45;;;;;;;10.48;6.07;;;3.30;99.90;;;;;;5074594;28;20219;-46
2023/01/18 12:41:31;;;;;;;9.18;5.82;;;3.30;99.90;;;;;;5074618;28;20176;-46
2023/01/18 12:44:28;;;;;;;10.90;6.10;;;3.30;99.90;;;;;;5074498;28;20163;-46
2023/01/18 12:47:29;;;;;;;10.90;6.32;;;3.40;99.90;;;;;;5074567;28;20162;-46
2023/01/18 12:49:56;;;;;;;10.35;5.47;;;3.50;99.90;;;;;;5074670;28;20177;-46
2023/01/18 12:52:23;;;;;;;8.98;5.05;;;3.40;99.90;;;;;;5074362;28;20215;-46
2023/01/18 12:54:54;;;;;;;14.63;5.55;;;3.40;99.90;;;;;;5074266;28;20174;-46
2023/01/18 12:57:21;;;;;;;11.43;5.90;;;3.50;99.90;;;;;;5074542;28;20185;-46
2023/01/18 12:59:54;;;;;;;14.65;6.50;;;3.50;99.90;;;;;;5073994;28;20268;-46
2023/01/18 13:02:37;;;;;;;8.00;4.68;;;3.60;99.90;;;;;;5074218;28;20267;-47
2023/01/18 13:05:21;;;;;;;8.68;4.65;;;3.60;99.90;;;;;;5073135;28;20300;-46
2023/01/18 13:07:52;;;;;;;5.38;3.60;;;3.50;99.90;;;;;;5073886;28;20252;-46
2023/01/18 13:10:21;;;;;;;6.53;4.10;;;3.50;99.90;;;;;;5074146;28;20170;-47
2023/01/18 13:12:49;;;;;;;7.30;4.28;;;3.60;99.90;;;;;;5074097;28;20162;-46
2023/01/18 13:15:31;;;;;;;6.50;4.88;;;3.60;99.90;;;;;;5074251;28;20194;-47
2023/01/18 13:18:25;;;;;;;8.30;4.68;;;3.70;99.90;;;;;;5074234;28;20208;-47
2023/01/18 13:20:53;;;;;;;7.13;4.63;;;3.60;99.90;;;;;;5073833;28;20166;-46
2023/01/18 13:23:22;;;;;;;7.63;4.35;;;3.70;99.90;;;;;;5074079;28;20170;-47
2023/01/18 13:26:20;;;;;;;10.98;4.13;;;3.70;99.90;;;;;;5074072;28;20173;-47
2023/01/18 13:28:46;;;;;;;7.60;4.82;;;3.70;99.90;;;;;;5074014;28;20198;-46